createdAt,value
2022-10-10T00:00:48.494Z,59.81
2022-10-10T00:01:50.749Z,59.69
2022-10-10T00:02:53.214Z,59.83
2022-10-10T00:03:56.040Z,59.83
2022-10-10T00:05:01.297Z,59.90
2022-10-10T00:06:03.930Z,59.95
2022-10-10T00:07:06.324Z,60.00
2022-10-10T00:08:08.841Z,59.97
2022-10-10T00:09:11.053Z,59.87
2022-10-10T00:10:13.281Z,59.97
2022-10-10T00:11:17.096Z,59.93
2022-10-10T00:12:19.393Z,59.94
2022-10-10T00:13:21.981Z,60.03
2022-10-10T00:14:24.184Z,59.92
2022-10-10T00:15:26.881Z,59.92
2022-10-10T00:16:29.145Z,60.01
2022-10-10T00:17:31.579Z,60.06
2022-10-10T00:18:34.410Z,59.92
2022-10-10T00:19:36.707Z,59.94
2022-10-10T00:20:38.988Z,59.96
2022-10-10T00:21:41.316Z,60.07
2022-10-10T00:22:43.917Z,60.07
2022-10-10T00:23:46.212Z,60.03
2022-10-10T00:24:50.976Z,60.03
2022-10-10T00:25:53.701Z,60.17
2022-10-10T00:26:55.928Z,60.13
2022-10-10T00:28:02.754Z,60.29
2022-10-10T00:29:07.495Z,60.25
2022-10-10T00:30:11.153Z,60.29
2022-10-10T00:31:13.722Z,60.22
2022-10-10T00:32:15.908Z,60.28
2022-10-10T00:33:18.224Z,60.20
2022-10-10T00:34:26.605Z,60.30
2022-10-10T00:35:29.187Z,60.23
2022-10-10T00:36:31.496Z,60.06
2022-10-10T00:37:33.684Z,60.36
2022-10-10T00:38:35.958Z,60.44
2022-10-10T00:39:41.206Z,60.48
2022-10-10T00:40:52.390Z,60.56
2022-10-10T00:41:54.611Z,60.59
2022-10-10T00:42:56.895Z,60.45
2022-10-10T00:44:14.632Z,60.61
2022-10-10T00:45:28.429Z,60.46
2022-10-10T00:46:31.132Z,60.54
2022-10-10T00:47:34.521Z,60.45
2022-10-10T00:48:43.633Z,60.55
2022-10-10T00:49:45.861Z,60.32
2022-10-10T00:50:57.475Z,60.34
2022-10-10T00:52:00.454Z,60.50
2022-10-10T00:53:08.238Z,60.29
2022-10-10T00:54:12.956Z,60.24
2022-10-10T00:55:15.910Z,60.18
2022-10-10T00:56:21.742Z,60.24
2022-10-10T00:57:24.012Z,60.13
2022-10-10T00:58:26.540Z,60.11
2022-10-10T00:59:33.164Z,60.03
2022-10-10T01:00:35.469Z,60.19
2022-10-10T01:01:38.892Z,60.06
2022-10-10T01:02:41.229Z,60.07
2022-10-10T01:03:43.713Z,59.95
2022-10-10T01:04:45.965Z,59.82
2022-10-10T01:05:50.097Z,59.88
2022-10-10T01:06:59.699Z,59.91
2022-10-10T01:08:06.664Z,59.93
2022-10-10T01:09:08.839Z,59.67
2022-10-10T01:10:20.391Z,59.61
2022-10-10T01:11:44.963Z,59.69
2022-10-10T01:13:07.506Z,59.61
2022-10-10T01:14:24.559Z,59.73
2022-10-10T01:15:54.033Z,59.56
2022-10-10T01:17:06.217Z,59.68
2022-10-10T01:18:24.533Z,59.66
2022-10-10T01:19:38.664Z,59.61
2022-10-10T01:21:02.685Z,59.65
2022-10-10T01:22:11.260Z,59.78
2022-10-10T01:23:32.244Z,59.62
2022-10-10T01:24:47.579Z,59.60
2022-10-10T01:26:10.179Z,59.48
2022-10-10T01:27:41.644Z,59.36
2022-10-10T01:28:46.347Z,59.42
2022-10-10T01:29:52.913Z,59.39
2022-10-10T01:30:57.738Z,59.42
2022-10-10T01:32:14.763Z,59.27
2022-10-10T01:33:28.252Z,59.41
2022-10-10T01:34:33.200Z,59.26
2022-10-10T01:36:01.574Z,59.22
2022-10-10T01:37:09.572Z,59.16
2022-10-10T01:38:44.932Z,59.10
2022-10-10T01:40:04.461Z,59.04
2022-10-10T01:41:13.740Z,59.09
2022-10-10T01:42:29.665Z,59.00
2022-10-10T01:43:32.273Z,59.08
2022-10-10T01:44:37.465Z,59.02
2022-10-10T01:45:48.774Z,59.05
2022-10-10T01:46:50.973Z,59.10
2022-10-10T01:47:59.377Z,59.03
2022-10-10T01:49:02.201Z,59.08
2022-10-10T01:50:10.469Z,59.08
2022-10-10T01:51:17.934Z,59.03
2022-10-10T01:52:33.681Z,59.04
2022-10-10T01:53:50.826Z,58.93
2022-10-10T01:55:26.984Z,58.86
2022-10-10T01:56:41.405Z,58.88
2022-10-10T01:58:31.202Z,58.72
2022-10-10T01:59:47.052Z,58.75
2022-10-10T02:01:07.648Z,58.66
2022-10-10T02:02:38.667Z,58.68
2022-10-10T02:03:46.837Z,58.69
2022-10-10T02:04:56.998Z,58.64
2022-10-10T02:06:25.834Z,58.66
2022-10-10T02:07:35.560Z,58.42
2022-10-10T02:08:43.596Z,58.42
2022-10-10T02:09:46.865Z,58.48
2022-10-10T02:10:53.347Z,58.48
2022-10-10T02:11:58.289Z,58.42
2022-10-10T02:13:02.829Z,58.30
2022-10-10T02:14:29.133Z,58.44
2022-10-10T02:15:40.497Z,58.45
2022-10-10T02:16:49.452Z,58.32
2022-10-10T02:17:52.421Z,58.20
2022-10-10T02:18:57.892Z,58.33
2022-10-10T02:20:00.672Z,58.29
2022-10-10T02:21:06.529Z,58.24
2022-10-10T02:22:10.742Z,58.28
2022-10-10T02:23:16.909Z,58.27
2022-10-10T02:24:22.523Z,58.24
2022-10-10T02:25:29.467Z,58.13
2022-10-10T02:26:32.365Z,58.09
2022-10-10T02:27:49.024Z,58.11
2022-10-10T02:29:04.428Z,58.03
2022-10-10T02:30:07.347Z,58.09
2022-10-10T02:31:14.733Z,58.07
2022-10-10T02:32:26.270Z,58.06
2022-10-10T02:33:52.944Z,57.92
2022-10-10T02:35:00.651Z,57.96
2022-10-10T02:36:04.178Z,58.04
2022-10-10T02:37:12.658Z,58.04
2022-10-10T02:38:16.070Z,58.07
2022-10-10T02:39:22.210Z,58.12
2022-10-10T02:40:29.081Z,58.08
2022-10-10T02:41:33.395Z,58.14
2022-10-10T02:42:37.093Z,57.91
2022-10-10T02:43:39.680Z,58.06
2022-10-10T02:44:42.556Z,58.00
2022-10-10T02:45:44.919Z,58.03
2022-10-10T02:46:47.133Z,58.09
2022-10-10T02:47:50.975Z,58.06
2022-10-10T02:48:53.204Z,57.94
2022-10-10T02:49:55.386Z,57.91
2022-10-10T02:51:00.364Z,57.97
2022-10-10T02:52:04.865Z,57.99
2022-10-10T02:53:07.154Z,57.94
2022-10-10T02:54:09.537Z,57.94
2022-10-10T02:55:11.839Z,57.94
2022-10-10T02:56:14.481Z,57.90
2022-10-10T02:57:16.687Z,57.89
2022-10-10T02:58:19.277Z,57.87
2022-10-10T02:59:21.512Z,57.84
2022-10-10T03:00:23.714Z,57.97
2022-10-10T03:01:26.019Z,57.77
2022-10-10T03:02:28.379Z,57.86
2022-10-10T03:03:30.590Z,57.89
2022-10-10T03:04:32.844Z,57.83
2022-10-10T03:05:35.037Z,57.84
2022-10-10T03:06:37.252Z,57.78
2022-10-10T03:07:39.611Z,57.89
2022-10-10T03:08:41.921Z,57.75
2022-10-10T03:09:44.207Z,57.69
2022-10-10T03:11:00.768Z,57.67
2022-10-10T03:12:03.637Z,57.55
2022-10-10T03:13:05.869Z,57.61
2022-10-10T03:14:08.115Z,57.63
2022-10-10T03:15:11.827Z,57.67
2022-10-10T03:16:14.409Z,57.65
2022-10-10T03:17:16.751Z,57.71
2022-10-10T03:18:19.929Z,57.68
2022-10-10T03:19:22.091Z,57.53
2022-10-10T03:20:24.762Z,57.57
2022-10-10T03:21:26.968Z,57.46
2022-10-10T03:22:29.428Z,57.67
2022-10-10T03:23:33.053Z,57.56
2022-10-10T03:24:35.289Z,57.58
2022-10-10T03:25:41.320Z,57.66
2022-10-10T03:26:43.923Z,57.47
2022-10-10T03:27:46.169Z,57.57
2022-10-10T03:28:48.417Z,57.49
2022-10-10T03:29:50.602Z,57.57
2022-10-10T03:30:52.838Z,57.43
2022-10-10T03:31:55.001Z,57.29
2022-10-10T03:32:57.216Z,57.32
2022-10-10T03:33:59.563Z,57.35
2022-10-10T03:35:01.715Z,57.15
2022-10-10T03:36:04.596Z,57.33
2022-10-10T03:37:07.000Z,57.21
2022-10-10T03:38:11.431Z,57.38
2022-10-10T03:39:13.667Z,57.25
2022-10-10T03:40:15.900Z,57.16
2022-10-10T03:41:18.098Z,57.24
2022-10-10T03:42:20.320Z,57.16
2022-10-10T03:43:22.519Z,57.13
2022-10-10T03:44:24.803Z,57.10
2022-10-10T03:45:27.033Z,57.15
2022-10-10T03:46:29.287Z,57.26
2022-10-10T03:47:31.437Z,57.07
2022-10-10T03:48:33.642Z,57.04
2022-10-10T03:49:35.805Z,57.04
2022-10-10T03:50:38.178Z,57.07
2022-10-10T03:51:40.408Z,57.05
2022-10-10T03:52:42.591Z,56.89
2022-10-10T03:53:44.935Z,56.86
2022-10-10T03:54:47.112Z,56.89
2022-10-10T03:55:49.448Z,56.82
2022-10-10T03:56:51.642Z,56.79
2022-10-10T03:57:53.929Z,56.79
2022-10-10T03:59:02.903Z,56.93
2022-10-10T04:00:05.922Z,56.75
2022-10-10T04:01:08.449Z,56.75
2022-10-10T04:02:10.674Z,56.91
2022-10-10T04:03:12.898Z,56.66
2022-10-10T04:04:15.390Z,56.64
2022-10-10T04:05:17.666Z,56.69
2022-10-10T04:06:20.007Z,56.58
2022-10-10T04:07:22.201Z,56.44
2022-10-10T04:08:24.839Z,56.48
2022-10-10T04:09:29.814Z,56.40
2022-10-10T04:10:34.943Z,56.32
2022-10-10T04:11:38.865Z,56.57
2022-10-10T04:12:41.057Z,56.42
2022-10-10T04:13:43.329Z,56.46
2022-10-10T04:14:45.588Z,56.32
2022-10-10T04:15:51.877Z,56.35
2022-10-10T04:16:54.293Z,56.25
2022-10-10T04:17:56.494Z,56.28
2022-10-10T04:18:58.668Z,56.28
2022-10-10T04:20:03.372Z,56.22
2022-10-10T04:21:09.743Z,56.25
2022-10-10T04:22:12.022Z,56.30
2022-10-10T04:23:14.390Z,56.25
2022-10-10T04:24:16.627Z,56.30
2022-10-10T04:25:18.924Z,56.24
2022-10-10T04:26:21.168Z,56.18
2022-10-10T04:27:23.456Z,56.14
2022-10-10T04:28:25.837Z,56.34
2022-10-10T04:29:28.208Z,56.37
2022-10-10T04:30:33.539Z,56.23
2022-10-10T04:31:35.837Z,56.07
2022-10-10T04:32:38.183Z,56.22
2022-10-10T04:33:40.414Z,56.10
2022-10-10T04:34:42.683Z,56.23
2022-10-10T04:35:47.957Z,56.08
2022-10-10T04:36:50.137Z,56.14
2022-10-10T04:37:53.555Z,56.12
2022-10-10T04:38:55.742Z,56.05
2022-10-10T04:39:58.001Z,56.12
2022-10-10T04:41:00.191Z,56.24
2022-10-10T04:42:05.009Z,56.27
2022-10-10T04:43:07.248Z,56.16
2022-10-10T04:44:09.426Z,56.08
2022-10-10T04:45:11.721Z,56.12
2022-10-10T04:46:13.925Z,56.11
2022-10-10T04:47:16.120Z,56.19
2022-10-10T04:48:18.312Z,56.24
2022-10-10T04:49:20.566Z,56.09
2022-10-10T04:50:24.053Z,56.26
2022-10-10T04:51:28.544Z,56.33
2022-10-10T04:52:30.811Z,56.40
2022-10-10T04:53:36.188Z,56.45
2022-10-10T04:54:38.392Z,56.23
2022-10-10T04:55:41.466Z,56.38
2022-10-10T04:56:43.683Z,56.30
2022-10-10T04:57:45.915Z,56.36
2022-10-10T04:58:48.134Z,56.33
2022-10-10T04:59:53.413Z,56.35
2022-10-10T05:00:56.304Z,56.25
2022-10-10T05:02:01.673Z,56.30
2022-10-10T05:03:04.518Z,56.35
2022-10-10T05:04:08.524Z,56.33
2022-10-10T05:05:10.751Z,56.37
2022-10-10T05:06:13.599Z,56.40
2022-10-10T05:07:15.794Z,56.37
2022-10-10T05:08:18.435Z,56.39
2022-10-10T05:09:28.389Z,56.33
2022-10-10T05:10:40.340Z,56.37
2022-10-10T05:11:42.513Z,56.33
2022-10-10T05:12:44.717Z,56.44
2022-10-10T05:13:47.230Z,56.42
2022-10-10T05:14:49.426Z,56.53
2022-10-10T05:15:52.693Z,56.58
2022-10-10T05:16:54.911Z,56.39
2022-10-10T05:17:57.082Z,56.40
2022-10-10T05:18:59.321Z,56.54
2022-10-10T05:20:01.555Z,56.41
2022-10-10T05:21:04.158Z,56.52
2022-10-10T05:22:06.470Z,56.48
2022-10-10T05:23:08.650Z,56.49
2022-10-10T05:24:10.903Z,56.42
2022-10-10T05:25:13.284Z,56.52
2022-10-10T05:26:15.730Z,56.60
2022-10-10T05:27:17.997Z,56.51
2022-10-10T05:28:20.209Z,56.77
2022-10-10T05:29:22.470Z,56.76
2022-10-10T05:30:24.740Z,56.81
2022-10-10T05:31:26.919Z,56.77
2022-10-10T05:32:29.098Z,56.76
2022-10-10T05:33:34.630Z,56.71
2022-10-10T05:34:36.867Z,56.91
2022-10-10T05:35:39.080Z,56.92
2022-10-10T05:36:42.409Z,56.95
2022-10-10T05:37:44.641Z,56.93
2022-10-10T05:38:46.843Z,57.03
2022-10-10T05:39:53.728Z,57.02
2022-10-10T05:40:56.804Z,57.14
2022-10-10T05:41:58.994Z,57.21
2022-10-10T05:43:04.476Z,57.26
2022-10-10T05:44:06.656Z,57.41
2022-10-10T05:45:09.533Z,57.27
2022-10-10T05:46:11.706Z,57.28
2022-10-10T05:47:14.928Z,57.35
2022-10-10T05:48:17.328Z,57.28
2022-10-10T05:49:19.881Z,57.42
2022-10-10T05:50:34.096Z,57.32
2022-10-10T05:51:36.476Z,57.34
2022-10-10T05:52:38.662Z,57.28
2022-10-10T05:53:40.960Z,57.32
2022-10-10T05:54:46.276Z,57.34
2022-10-10T05:55:48.985Z,57.11
2022-10-10T05:56:51.183Z,57.27
2022-10-10T05:57:53.532Z,57.33
2022-10-10T05:58:55.720Z,57.32
2022-10-10T05:59:57.936Z,57.26
2022-10-10T06:01:06.435Z,57.30
2022-10-10T06:02:08.784Z,57.25
2022-10-10T06:03:14.230Z,57.22
2022-10-10T06:04:16.881Z,57.24
2022-10-10T06:05:19.078Z,57.25
2022-10-10T06:06:21.694Z,57.25
2022-10-10T06:07:23.891Z,57.21
2022-10-10T06:08:26.351Z,57.30
2022-10-10T06:09:28.563Z,57.15
2022-10-10T06:10:33.626Z,57.12
2022-10-10T06:11:35.782Z,57.15
2022-10-10T06:12:38.157Z,57.17
2022-10-10T06:13:40.401Z,57.22
2022-10-10T06:14:42.569Z,57.23
2022-10-10T06:15:45.178Z,57.01
2022-10-10T06:16:47.337Z,57.21
2022-10-10T06:17:49.517Z,57.13
2022-10-10T06:18:52.045Z,57.26
2022-10-10T06:19:54.267Z,57.22
2022-10-10T06:21:01.895Z,57.15
2022-10-10T06:22:04.121Z,57.27
2022-10-10T06:23:08.400Z,57.14
2022-10-10T06:24:10.995Z,57.21
2022-10-10T06:25:35.453Z,57.25
2022-10-10T06:26:35.462Z,57.31
2022-10-10T06:27:37.997Z,57.38
2022-10-10T06:28:40.213Z,57.26
2022-10-10T06:29:42.448Z,57.33
2022-10-10T06:30:45.077Z,57.33
2022-10-10T06:31:47.233Z,57.30
2022-10-10T06:32:52.486Z,57.42
2022-10-10T06:33:56.906Z,57.38
2022-10-10T06:34:59.150Z,57.16
2022-10-10T06:36:05.497Z,57.12
2022-10-10T06:37:08.624Z,57.04
2022-10-10T06:38:11.624Z,56.98
2022-10-10T06:39:13.852Z,57.04
2022-10-10T06:40:18.657Z,56.91
2022-10-10T06:41:20.890Z,57.08
2022-10-10T06:42:23.223Z,57.02
2022-10-10T06:43:33.206Z,56.89
2022-10-10T06:44:35.466Z,56.77
2022-10-10T06:45:47.418Z,56.86
2022-10-10T06:46:49.663Z,56.82
2022-10-10T06:47:54.431Z,56.87
2022-10-10T06:48:56.684Z,56.80
2022-10-10T06:49:59.018Z,56.75
2022-10-10T06:51:04.487Z,56.68
2022-10-10T06:52:06.762Z,56.90
2022-10-10T06:53:09.259Z,56.73
2022-10-10T06:54:12.246Z,56.39
2022-10-10T06:55:14.495Z,56.58
2022-10-10T06:56:27.128Z,56.26
2022-10-10T06:57:29.982Z,56.16
2022-10-10T06:58:33.339Z,56.21
2022-10-10T06:59:35.547Z,56.34
2022-10-10T07:00:37.855Z,56.28
2022-10-10T07:01:40.171Z,56.10
2022-10-10T07:02:42.791Z,55.94
2022-10-10T07:03:45.076Z,55.82
2022-10-10T07:04:47.312Z,56.08
2022-10-10T07:05:59.476Z,55.68
2022-10-10T07:07:01.697Z,55.66
2022-10-10T07:08:03.915Z,55.81
2022-10-10T07:09:08.716Z,55.44
2022-10-10T07:10:15.390Z,55.50
2022-10-10T07:11:17.740Z,55.58
2022-10-10T07:12:23.017Z,55.43
2022-10-10T07:13:27.424Z,55.15
2022-10-10T07:14:29.630Z,54.95
2022-10-10T07:15:31.823Z,55.01
2022-10-10T07:16:34.803Z,54.91
2022-10-10T07:17:37.083Z,54.82
2022-10-10T07:18:39.312Z,54.78
2022-10-10T07:19:41.497Z,54.96
2022-10-10T07:20:43.950Z,55.05
2022-10-10T07:21:46.940Z,55.01
2022-10-10T07:22:49.478Z,55.12
2022-10-10T07:23:55.023Z,54.80
2022-10-10T07:24:57.284Z,54.75
2022-10-10T07:26:08.184Z,54.73
2022-10-10T07:27:10.360Z,54.87
2022-10-10T07:28:12.867Z,54.84
2022-10-10T07:29:15.176Z,54.70
2022-10-10T07:30:17.644Z,54.66
2022-10-10T07:31:19.980Z,54.55
2022-10-10T07:33:43.870Z,54.38
2022-10-10T07:34:48.313Z,54.35
2022-10-10T07:35:54.945Z,54.48
2022-10-10T07:36:57.151Z,54.53
2022-10-10T07:37:59.338Z,54.39
2022-10-10T07:39:01.576Z,54.42
2022-10-10T07:40:04.334Z,54.41
2022-10-10T07:41:12.906Z,54.47
2022-10-10T07:42:15.126Z,54.61
2022-10-10T07:43:17.591Z,54.50
2022-10-10T07:44:20.556Z,54.22
2022-10-10T07:45:22.815Z,54.12
2022-10-10T07:46:25.095Z,53.99
2022-10-10T07:47:27.342Z,54.13
2022-10-10T07:48:30.929Z,53.91
2022-10-10T07:49:33.178Z,54.01
2022-10-10T07:50:35.420Z,53.77
2022-10-10T07:51:38.966Z,54.18
2022-10-10T07:52:41.495Z,53.80
2022-10-10T07:53:44.408Z,54.16
2022-10-10T07:54:46.735Z,54.21
2022-10-10T07:55:48.917Z,54.04
2022-10-10T07:56:54.141Z,54.05
2022-10-10T07:57:56.625Z,54.05
2022-10-10T07:59:00.243Z,54.16
2022-10-10T08:00:08.914Z,53.93
2022-10-10T08:01:17.735Z,54.27
2022-10-10T08:02:20.027Z,54.39
2022-10-10T08:03:22.260Z,54.31
2022-10-10T08:04:24.519Z,54.28
2022-10-10T08:05:29.514Z,54.49
2022-10-10T08:06:31.739Z,54.33
2022-10-10T08:07:34.096Z,54.33
2022-10-10T08:08:44.825Z,54.41
2022-10-10T08:09:50.985Z,54.26
2022-10-10T08:10:53.285Z,54.12
2022-10-10T08:11:55.475Z,54.18
2022-10-10T08:12:57.649Z,54.01
2022-10-10T08:13:59.871Z,53.96
2022-10-10T08:15:02.132Z,54.06
2022-10-10T08:16:05.144Z,54.02
2022-10-10T08:17:07.332Z,54.05
2022-10-10T08:18:09.580Z,54.00
2022-10-10T08:19:11.788Z,53.66
2022-10-10T08:20:14.177Z,53.58
2022-10-10T08:21:18.146Z,53.52
2022-10-10T08:22:20.392Z,53.58
2022-10-10T08:23:23.852Z,53.47
2022-10-10T08:24:26.230Z,53.61
2022-10-10T08:26:47.329Z,53.48
2022-10-10T08:27:49.589Z,53.64
2022-10-10T08:28:51.852Z,53.39
2022-10-10T08:29:56.641Z,53.50
2022-10-10T08:31:00.909Z,53.51
2022-10-10T08:32:04.243Z,53.37
2022-10-10T08:33:06.423Z,53.50
2022-10-10T08:34:10.738Z,53.49
2022-10-10T08:35:12.984Z,53.27
2022-10-10T08:36:22.119Z,53.27
2022-10-10T08:37:29.806Z,53.51
2022-10-10T08:38:35.383Z,53.13
2022-10-10T08:39:37.635Z,53.11
2022-10-10T08:40:53.478Z,52.99
2022-10-10T08:42:01.594Z,52.72
2022-10-10T08:43:09.244Z,52.82
2022-10-10T08:44:57.716Z,53.10
2022-10-10T08:46:14.862Z,52.62
2022-10-10T08:47:36.695Z,52.76
2022-10-10T08:48:40.385Z,52.68
2022-10-10T08:49:50.019Z,52.51
2022-10-10T08:51:06.659Z,52.34
2022-10-10T08:52:39.677Z,52.39
2022-10-10T08:53:47.904Z,52.49
2022-10-10T08:54:57.488Z,52.47
2022-10-10T08:56:02.555Z,52.21
2022-10-10T08:57:07.066Z,51.98
2022-10-10T08:58:27.879Z,52.02
2022-10-10T08:59:36.262Z,52.09
2022-10-10T09:00:41.889Z,51.95
2022-10-10T09:02:17.706Z,51.65
2022-10-10T09:03:21.717Z,51.86
2022-10-10T09:04:23.980Z,51.81
2022-10-10T09:05:32.131Z,51.80
2022-10-10T09:06:45.096Z,51.72
2022-10-10T09:08:09.181Z,51.57
2022-10-10T09:09:17.590Z,51.34
2022-10-10T09:10:56.984Z,51.38
2022-10-10T09:12:05.549Z,51.25
2022-10-10T09:13:25.807Z,51.01
2022-10-10T09:14:59.782Z,50.98
2022-10-10T09:16:22.564Z,51.14
2022-10-10T09:17:48.952Z,50.86
2022-10-10T09:19:05.954Z,51.03
2022-10-10T09:20:32.437Z,51.13
2022-10-10T09:21:37.403Z,50.59
2022-10-10T09:22:54.012Z,50.62
2022-10-10T09:24:03.229Z,50.59
2022-10-10T09:25:21.595Z,50.58
2022-10-10T09:26:28.686Z,50.66
2022-10-10T09:27:37.671Z,50.28
2022-10-10T09:28:47.382Z,50.37
2022-10-10T09:29:56.455Z,50.68
2022-10-10T09:31:01.562Z,50.58
2022-10-10T09:32:20.312Z,50.20
2022-10-10T09:34:00.671Z,50.51
2022-10-10T09:35:15.641Z,50.26
2022-10-10T09:36:26.215Z,50.37
2022-10-10T09:37:46.917Z,50.07
2022-10-10T09:38:59.593Z,50.06
2022-10-10T09:40:19.335Z,50.30
2022-10-10T09:41:41.104Z,50.09
2022-10-10T09:42:45.107Z,49.77
2022-10-10T09:43:48.467Z,49.37
2022-10-10T09:44:50.693Z,49.36
2022-10-10T09:45:58.256Z,49.57
2022-10-10T09:47:00.759Z,49.48
2022-10-10T09:48:03.708Z,49.52
2022-10-10T09:49:06.826Z,49.25
2022-10-10T09:50:13.753Z,49.01
2022-10-10T09:51:18.420Z,48.66
2022-10-10T09:52:25.708Z,47.99
2022-10-10T09:53:27.999Z,48.38
2022-10-10T09:54:30.501Z,48.30
2022-10-10T09:55:39.511Z,48.08
2022-10-10T09:56:48.148Z,48.19
2022-10-10T09:57:53.615Z,47.95
2022-10-10T09:58:57.049Z,47.69
2022-10-10T10:00:03.711Z,47.17
2022-10-10T10:01:20.939Z,47.05
2022-10-10T10:02:28.061Z,46.40
2022-10-10T10:03:30.259Z,46.56
2022-10-10T10:04:33.474Z,46.81
2022-10-10T10:05:35.996Z,46.36
2022-10-10T10:06:39.383Z,46.02
2022-10-10T10:07:48.375Z,45.47
2022-10-10T10:08:53.186Z,45.44
2022-10-10T10:10:11.305Z,44.96
2022-10-10T10:11:33.653Z,45.30
2022-10-10T10:12:42.687Z,44.92
2022-10-10T10:13:45.025Z,44.56
2022-10-10T10:14:47.367Z,44.69
2022-10-10T10:15:55.222Z,44.94
2022-10-10T10:17:08.517Z,44.95
2022-10-10T10:18:13.598Z,44.29
2022-10-10T10:19:36.916Z,44.46
2022-10-10T10:20:45.489Z,43.92
2022-10-10T10:21:51.486Z,43.87
2022-10-10T10:22:53.779Z,44.09
2022-10-10T10:24:19.382Z,44.06
2022-10-10T10:25:56.920Z,44.04
2022-10-10T10:27:10.912Z,43.73
2022-10-10T10:28:26.041Z,43.69
2022-10-10T10:29:32.283Z,43.30
2022-10-10T10:30:34.511Z,43.08
2022-10-10T10:31:48.770Z,43.02
2022-10-10T10:33:02.858Z,43.61
2022-10-10T10:34:20.288Z,43.34
2022-10-10T10:35:50.099Z,43.63
2022-10-10T10:37:21.435Z,44.03
2022-10-10T10:38:24.435Z,44.06
2022-10-10T10:39:44.142Z,43.62
2022-10-10T10:41:25.477Z,43.56
2022-10-10T10:42:49.257Z,43.52
2022-10-10T10:44:00.439Z,43.34
2022-10-10T10:45:29.054Z,43.77
2022-10-10T10:46:47.617Z,43.53
2022-10-10T10:48:22.288Z,43.34
2022-10-10T10:49:57.711Z,43.67
2022-10-10T10:51:18.256Z,43.61
2022-10-10T10:52:20.494Z,43.24
2022-10-10T10:53:53.997Z,43.44
2022-10-10T10:55:35.799Z,43.15
2022-10-10T10:57:40.521Z,43.29
2022-10-10T10:59:24.131Z,43.79
2022-10-10T11:00:25.977Z,43.05
2022-10-10T11:01:56.070Z,42.83
2022-10-10T11:05:20.537Z,43.10
2022-10-10T11:05:31.038Z,42.97
2022-10-10T11:06:59.997Z,42.98
2022-10-10T11:08:25.386Z,43.30
2022-10-10T11:09:50.219Z,43.42
2022-10-10T11:11:13.176Z,43.62
2022-10-10T11:12:24.373Z,43.16
2022-10-10T11:13:43.947Z,43.47
2022-10-10T11:14:56.284Z,43.21
2022-10-10T11:16:13.560Z,43.09
2022-10-10T11:17:37.152Z,42.81
2022-10-10T11:19:04.587Z,42.82
2022-10-10T11:20:36.111Z,42.90
2022-10-10T11:21:44.288Z,42.53
2022-10-10T11:22:54.015Z,43.16
2022-10-10T11:24:09.408Z,43.42
2022-10-10T11:25:23.901Z,43.46
2022-10-10T11:26:39.293Z,43.23
2022-10-10T11:28:22.292Z,43.46
2022-10-10T11:29:32.970Z,42.96
2022-10-10T11:30:44.870Z,43.16
2022-10-10T11:32:13.078Z,42.77
2022-10-10T11:33:22.673Z,42.85
2022-10-10T11:34:31.875Z,42.93
2022-10-10T11:35:45.634Z,43.16
2022-10-10T11:36:48.980Z,42.94
2022-10-10T11:38:16.596Z,43.12
2022-10-10T11:39:24.697Z,43.48
2022-10-10T11:40:45.658Z,43.46
2022-10-10T11:42:06.670Z,42.86
2022-10-10T11:43:19.075Z,42.92
2022-10-10T11:44:36.776Z,43.15
2022-10-10T11:45:53.598Z,43.12
2022-10-10T11:47:06.808Z,43.11
2022-10-10T11:48:52.482Z,42.77
2022-10-10T11:50:06.142Z,42.64
2022-10-10T11:51:23.279Z,42.50
2022-10-10T11:52:33.910Z,42.49
2022-10-10T11:53:42.185Z,42.16
2022-10-10T11:54:54.632Z,42.29
2022-10-10T11:56:03.076Z,42.26
2022-10-10T11:57:16.624Z,42.65
2022-10-10T11:58:25.347Z,42.20
2022-10-10T11:59:36.884Z,41.75
2022-10-10T12:00:56.101Z,42.06
2022-10-10T12:02:02.118Z,42.20
2022-10-10T12:03:04.337Z,41.82
2022-10-10T12:04:06.584Z,42.10
2022-10-10T12:05:29.553Z,42.53
2022-10-10T12:06:44.601Z,42.19
2022-10-10T12:08:03.708Z,42.38
2022-10-10T12:09:15.406Z,42.42
2022-10-10T12:10:39.523Z,42.60
2022-10-10T12:12:02.887Z,42.52
2022-10-10T12:13:18.170Z,42.86
2022-10-10T12:14:23.014Z,42.16
2022-10-10T12:15:41.335Z,42.53
2022-10-10T12:16:46.940Z,42.67
2022-10-10T12:17:49.215Z,42.13
2022-10-10T12:19:17.466Z,42.45
2022-10-10T12:20:25.682Z,42.11
2022-10-10T12:21:30.639Z,41.75
2022-10-10T12:22:32.979Z,42.09
2022-10-10T12:23:36.108Z,42.01
2022-10-10T12:25:07.489Z,42.50
2022-10-10T12:26:19.701Z,42.17
2022-10-10T12:27:42.653Z,42.12
2022-10-10T12:29:06.629Z,42.60
2022-10-10T12:30:09.219Z,41.95
2022-10-10T12:31:11.416Z,41.87
2022-10-10T12:32:13.675Z,42.07
2022-10-10T12:33:20.898Z,42.03
2022-10-10T12:34:56.322Z,42.34
2022-10-10T12:36:20.496Z,42.89
2022-10-10T12:37:34.655Z,42.33
2022-10-10T12:38:36.914Z,42.38
2022-10-10T12:40:00.007Z,42.48
2022-10-10T12:41:10.024Z,42.30
2022-10-10T12:42:50.713Z,42.68
2022-10-10T12:44:14.591Z,42.50
2022-10-10T12:45:29.245Z,42.28
2022-10-10T12:46:33.407Z,42.38
2022-10-10T12:48:04.568Z,42.09
2022-10-10T12:49:18.572Z,42.28
2022-10-10T12:50:40.569Z,42.43
2022-10-10T12:51:44.661Z,42.48
2022-10-10T12:52:51.437Z,42.49
2022-10-10T12:53:57.039Z,42.52
2022-10-10T12:55:07.800Z,42.43
2022-10-10T12:56:12.888Z,42.41
2022-10-10T12:57:25.579Z,42.73
2022-10-10T12:58:39.471Z,42.44
2022-10-10T12:59:42.175Z,42.56
2022-10-10T13:00:47.668Z,42.26
2022-10-10T13:01:57.494Z,42.51
2022-10-10T13:03:03.295Z,42.74
2022-10-10T13:04:05.746Z,42.70
2022-10-10T13:05:12.047Z,42.81
2022-10-10T13:06:30.943Z,42.76
2022-10-10T13:07:33.288Z,42.65
2022-10-10T13:08:37.558Z,42.53
2022-10-10T13:09:40.358Z,42.65
2022-10-10T13:10:42.655Z,42.49
2022-10-10T13:11:59.331Z,42.42
2022-10-10T13:13:01.548Z,42.42
2022-10-10T13:14:08.614Z,42.47
2022-10-10T13:15:20.356Z,42.39
2022-10-10T13:16:28.741Z,42.66
2022-10-10T13:17:41.277Z,42.54
2022-10-10T13:18:49.419Z,42.90
2022-10-10T13:19:53.587Z,42.54
2022-10-10T13:20:56.401Z,42.92
2022-10-10T13:21:58.659Z,42.56
2022-10-10T13:23:05.307Z,42.79
2022-10-10T13:24:07.927Z,43.06
2022-10-10T13:25:11.609Z,42.86
2022-10-10T13:26:36.755Z,42.86
2022-10-10T13:27:38.992Z,42.77
2022-10-10T13:28:44.751Z,42.87
2022-10-10T13:29:47.272Z,43.09
2022-10-10T13:30:50.710Z,42.58
2022-10-10T13:31:57.108Z,42.74
2022-10-10T13:32:59.418Z,42.44
2022-10-10T13:34:07.558Z,42.66
2022-10-10T13:35:29.267Z,42.84
2022-10-10T13:36:32.525Z,42.87
2022-10-10T13:37:35.603Z,42.85
2022-10-10T13:38:38.440Z,43.13
2022-10-10T13:39:40.824Z,43.33
2022-10-10T13:40:44.514Z,43.13
2022-10-10T13:41:48.237Z,43.34
2022-10-10T13:42:51.316Z,42.92
2022-10-10T13:43:56.595Z,42.77
2022-10-10T13:45:00.534Z,42.74
2022-10-10T13:46:04.213Z,42.59
2022-10-10T13:47:54.596Z,43.02
2022-10-10T13:48:57.590Z,42.89
2022-10-10T13:49:59.956Z,42.50
2022-10-10T13:51:14.007Z,43.13
2022-10-10T13:52:24.024Z,43.20
2022-10-10T13:53:29.299Z,42.90
2022-10-10T13:54:43.199Z,42.93
2022-10-10T13:55:45.767Z,43.17
2022-10-10T13:56:48.066Z,43.08
2022-10-10T13:57:51.438Z,43.13
2022-10-10T13:59:02.389Z,43.11
2022-10-10T14:00:15.013Z,42.87
2022-10-10T14:01:33.829Z,42.97
2022-10-10T14:02:37.484Z,43.04
2022-10-10T14:03:46.721Z,43.23
2022-10-10T14:04:54.229Z,43.83
2022-10-10T14:05:56.775Z,43.79
2022-10-10T14:07:06.578Z,43.69
2022-10-10T14:08:21.436Z,43.73
2022-10-10T14:09:42.139Z,43.57
2022-10-10T14:11:15.576Z,43.52
2022-10-10T14:12:26.221Z,43.11
2022-10-10T14:13:30.817Z,43.19
2022-10-10T14:14:44.162Z,43.27
2022-10-10T14:15:47.326Z,43.22
2022-10-10T14:17:03.235Z,43.55
2022-10-10T14:18:23.703Z,43.45
2022-10-10T14:19:26.405Z,43.33
2022-10-10T14:20:28.591Z,43.43
2022-10-10T14:21:30.803Z,43.49
2022-10-10T14:22:33.027Z,43.31
2022-10-10T14:23:37.076Z,43.14
2022-10-10T14:24:39.382Z,43.07
2022-10-10T14:25:47.039Z,42.87
2022-10-10T14:26:49.851Z,43.03
2022-10-10T14:27:52.025Z,43.24
2022-10-10T14:28:54.343Z,43.25
2022-10-10T14:29:58.367Z,43.38
2022-10-10T14:31:01.153Z,43.21
2022-10-10T14:32:03.645Z,43.14
2022-10-10T14:33:14.459Z,43.62
2022-10-10T14:34:16.768Z,43.62
2022-10-10T14:35:18.959Z,43.52
2022-10-10T14:36:24.245Z,43.88
2022-10-10T14:37:29.144Z,43.87
2022-10-10T14:38:32.366Z,43.99